• Join FlightAware (Why Join?)
  • Login
  • US Flag 
02:03PM EST


 

Airport Tracker/Info


-or-


 

Live Flight TrackerFlight Track Log ✈ RAX131 ✈ 02-Jul-2013 ✈ KPTK - KMWO

Flight Track Log - Related Links

Times and Time Zones

All times are in EDT time to prevent confusion due to time zone crossing. See the RAX131 flight status page for this flight to view local times or setup timezone preferences in your user account.

Time Position Orientation Groundspeed Altitude Reporting Facility
EDT Latitude Longitude Course Direction KTS MPH feet Rate Location/Type
07:33AM 42.6667 -83.3478 85° East 186 214 3,400  Level Cleveland Center
07:34AM 42.6700 -83.2997 85° East 204 235 5,100 2,520 Climbing Cleveland Center
07:35AM 42.6739 -83.2153 86° East 234 269 7,600 2,400 Climbing Cleveland Center
07:36AM 42.6656 -83.1217 97° East 263 303 10,000 2,400 Climbing Cleveland Center
07:37AM 42.5947 -83.1189 178° South 279 321 12,500 1,860 Climbing Cleveland Center
07:37AM 42.5569 -83.1342 197° South 281 323 12,900 480 Climbing Cleveland Center
07:39AM 42.4225 -83.1850 196° South 349 402 13,500 1,020 Climbing Cleveland Center
07:40AM 42.3531 -83.2131 197° South 349 402 15,500 1,980 Climbing Cleveland Center
07:41AM 42.2581 -83.2569 199° South 336 387 17,500 1,620 Climbing Cleveland Center
07:42AM 42.1694 -83.3036 201° Southwest 334 384 18,800 1,380 Climbing Cleveland Center
07:43AM 42.0831 -83.3389 197° South 329 379 20,300 1,260 Climbing Cleveland Center
07:44AM 41.9947 -83.3772 198° South 334 384 21,400 840 Climbing Cleveland Center
07:45AM 41.8956 -83.4231 199° South 334 384 22,000 300 Climbing Cleveland Center
07:46AM 41.8114 -83.4583 197° South 344 396 22,000  Level Cleveland Center
07:47AM 41.7186 -83.5014 199° South 350 403 22,000  Level Cleveland Center
07:48AM 41.6278 -83.5389 197° South 350 403 22,000  Level Cleveland Center
07:49AM 41.5414 -83.5794 199° South 345 397 22,000  Level Cleveland Center
07:50AM 41.4506 -83.6194 198° South 345 397 22,000  Level Cleveland Center
07:51AM 41.3619 -83.6597 199° South 345 397 22,000  Level Cleveland Center
07:53AM 41.1978 -83.7372 200° South 331 381 22,000  Level Indianapolis Center
07:54AM 41.1106 -83.7764 199° South 329 379 22,000  Level Indianapolis Center
07:55AM 41.0133 -83.8192 198° South 331 381 22,000  Level Indianapolis Center
07:56AM 40.9253 -83.8578 198° South 329 379 22,000  Level Indianapolis Center
07:57AM 40.8381 -83.8972 199° South 330 380 22,000  Level Indianapolis Center
07:58AM 40.7497 -83.9364 199° South 331 381 22,000  Level Indianapolis Center
07:59AM 40.6617 -83.9761 199° South 332 382 22,000 -360 Level Indianapolis Center
08:00AM 40.5725 -84.0158 199° South 334 384 21,300 -1,200 Descending Indianapolis Center
08:00AM 40.5164 -84.0422 200° South 356 410 20,200 -1,800 Descending Indianapolis Center
08:01AM 40.4744 -84.0597 198° South 367 422 19,500 -1,380 Descending Indianapolis Center
08:02AM 40.3678 -84.1022 197° South 394 453 18,100 -1,320 Descending Indianapolis Center
08:03AM 40.2547 -84.1525 199° South 367 422 16,800 -1,680 Descending Indianapolis Center
08:04AM 40.1647 -84.1753 191° South 332 382 14,700 -2,160 Descending Indianapolis Center
08:05AM 40.0719 -84.1878 186° South 334 384 12,500 -1,980 Descending Indianapolis Center
08:06AM 39.9892 -84.1950 184° South 302 348 10,700 -1,800 Descending Indianapolis Center
08:07AM 39.9158 -84.2014 184° South 272 313 8,900 -2,040 Descending Indianapolis Center
08:08AM 39.8275 -84.2100 184° South 254 292 6,200 -2,160 Descending Indianapolis Center
08:09AM 39.7747 -84.2144 184° South 255 293 4,500 -1,560 Descending Indianapolis Center
08:10AM 39.7069 -84.2214 185° South 250 288 3,400 -720 Descending Indianapolis Center
08:11AM 39.6428 -84.2453 196° South 163 188 3,000 -480 Descending Indianapolis Center
08:12AM 39.6147 -84.2683 212° Southwest 186 214 2,500 -660 Descending Indianapolis Center
08:13AM 39.5750 -84.3283 229° Southwest 181 208 1,800 -600 Descending Indianapolis Center
08:14AM 39.5450 -84.3719 228° Southwest 163 188 1,200 -600 Descending Indianapolis Center
08:16AM 39.5167 -84.3833 194° South  Level FlightAware Approximate
08:23AM 39.5318 -84.3964 194° South  Level Estimated
08:24AM 39.5318 -84.3964 194° South  Level Estimated